createdAt,value
2023-04-17T00:01:05.633Z,10.46
2023-04-17T00:03:33.164Z,10.43
2023-04-17T00:06:03.360Z,10.45
2023-04-17T00:08:31.275Z,10.42
2023-04-17T00:11:07.253Z,10.44
2023-04-17T00:13:35.766Z,10.45
2023-04-17T00:16:03.522Z,10.42
2023-04-17T00:18:30.593Z,10.41
2023-04-17T00:20:57.405Z,10.43
2023-04-17T00:23:25.711Z,10.42
2023-04-17T00:25:52.562Z,10.44
2023-04-17T00:28:19.501Z,10.39
2023-04-17T00:30:46.879Z,10.37
2023-04-17T00:33:13.973Z,10.35
2023-04-17T00:35:40.870Z,10.30
2023-04-17T00:38:10.815Z,10.28
2023-04-17T00:40:37.901Z,10.24
2023-04-17T00:43:06.569Z,10.22
2023-04-17T00:45:35.853Z,10.18
2023-04-17T00:48:05.939Z,10.13
2023-04-17T00:50:33.555Z,10.15
2023-04-17T00:53:00.918Z,10.10
2023-04-17T00:55:32.428Z,10.11
2023-04-17T00:57:59.941Z,10.07
2023-04-17T01:00:26.915Z,10.04
2023-04-17T01:02:57.374Z,10.05
2023-04-17T01:05:27.854Z,10.03
2023-04-17T01:07:57.390Z,10.00
2023-04-17T01:10:24.466Z,10.00
2023-04-17T01:13:08.261Z,9.90
2023-04-17T01:15:37.678Z,9.92
2023-04-17T01:18:06.708Z,9.90
2023-04-17T01:20:34.240Z,9.89
2023-04-17T01:23:02.005Z,9.85
2023-04-17T01:25:29.575Z,9.82
2023-04-17T01:27:56.889Z,9.79
2023-04-17T01:30:24.473Z,9.80
2023-04-17T01:33:03.288Z,9.78
2023-04-17T01:35:30.367Z,9.73
2023-04-17T01:37:57.640Z,9.71
2023-04-17T01:40:31.081Z,9.50
2023-04-17T01:42:58.101Z,9.61
2023-04-17T01:45:25.053Z,9.62
2023-04-17T01:47:52.005Z,9.63
2023-04-17T01:50:19.079Z,9.59
2023-04-17T01:52:46.371Z,9.58
2023-04-17T01:55:13.604Z,9.59
2023-04-17T01:57:41.183Z,9.59
2023-04-17T02:00:09.624Z,9.59
2023-04-17T02:02:43.525Z,9.61
2023-04-17T02:05:11.754Z,9.56
2023-04-17T02:07:38.609Z,9.52
2023-04-17T02:10:05.879Z,9.53
2023-04-17T02:12:33.016Z,9.52
2023-04-17T02:15:01.421Z,9.53
2023-04-17T02:17:32.999Z,9.52
2023-04-17T02:19:59.800Z,9.53
2023-04-17T02:22:26.655Z,9.51
2023-04-17T02:24:53.551Z,9.51
2023-04-17T02:27:20.322Z,9.55
2023-04-17T02:29:47.363Z,9.54
2023-04-17T02:32:16.965Z,9.49
2023-04-17T02:34:44.513Z,9.51
2023-04-17T02:37:13.340Z,9.48
2023-04-17T02:39:41.245Z,9.47
2023-04-17T02:42:10.351Z,9.47
2023-04-17T02:44:37.189Z,9.48
2023-04-17T02:47:04.169Z,9.51
2023-04-17T02:49:32.999Z,9.50
2023-04-17T02:52:00.189Z,9.54
2023-04-17T02:54:27.038Z,9.54
2023-04-17T02:56:59.338Z,9.60
2023-04-17T02:59:27.107Z,9.59
2023-04-17T03:01:54.398Z,9.64
2023-04-17T03:04:22.371Z,9.64
2023-04-17T03:06:49.433Z,9.69
2023-04-17T03:09:18.350Z,9.69
2023-04-17T03:11:45.941Z,9.68
2023-04-17T03:14:12.857Z,9.72
2023-04-17T03:16:40.619Z,9.75
2023-04-17T03:19:08.164Z,9.77
2023-04-17T03:21:35.791Z,9.79
2023-04-17T03:24:02.861Z,9.82
2023-04-17T03:26:30.724Z,9.89
2023-04-17T03:29:01.151Z,9.86
2023-04-17T03:31:28.294Z,9.92
2023-04-17T03:33:55.179Z,9.91
2023-04-17T03:36:23.235Z,9.88
2023-04-17T03:38:51.431Z,9.92
2023-04-17T03:41:18.357Z,9.86
2023-04-17T03:43:45.756Z,9.85
2023-04-17T03:46:12.573Z,9.87
2023-04-17T03:48:39.444Z,9.83
2023-04-17T03:51:06.562Z,9.85
2023-04-17T03:53:36.226Z,9.84
2023-04-17T03:56:06.902Z,9.86
2023-04-17T03:58:39.103Z,9.86
2023-04-17T04:01:10.772Z,9.88
2023-04-17T04:03:46.026Z,9.90
2023-04-17T04:06:13.175Z,9.97
2023-04-17T04:08:41.371Z,9.97
2023-04-17T04:11:08.550Z,10.03
2023-04-17T04:13:37.986Z,10.08
2023-04-17T04:16:06.908Z,10.11
2023-04-17T04:18:37.254Z,10.14
2023-04-17T04:21:05.918Z,10.15
2023-04-17T04:23:38.523Z,10.15
2023-04-17T04:26:05.585Z,10.25
2023-04-17T04:28:38.689Z,10.04
2023-04-17T04:31:09.837Z,10.18
2023-04-17T04:33:40.057Z,10.23
2023-04-17T04:36:07.109Z,10.23
2023-04-17T04:38:35.871Z,10.21
2023-04-17T04:41:10.589Z,10.24
2023-04-17T04:43:39.244Z,10.33
2023-04-17T04:46:09.073Z,10.37
2023-04-17T04:48:42.839Z,10.43
2023-04-17T04:51:10.284Z,10.53
2023-04-17T04:53:38.732Z,10.66
2023-04-17T04:56:07.810Z,10.81
2023-04-17T04:58:38.660Z,10.88
2023-04-17T05:01:06.849Z,10.95
2023-04-17T05:03:39.766Z,11.00
2023-04-17T05:06:09.552Z,11.10
2023-04-17T05:08:45.139Z,11.20
2023-04-17T05:11:15.438Z,11.31
2023-04-17T05:13:43.183Z,11.43
2023-04-17T05:16:18.874Z,11.46
2023-04-17T05:18:48.082Z,11.54
2023-04-17T05:21:18.724Z,11.62
2023-04-17T05:23:50.396Z,11.75
2023-04-17T05:26:17.291Z,11.76
2023-04-17T05:28:45.273Z,11.79
2023-04-17T05:31:16.026Z,11.69
2023-04-17T05:33:43.561Z,11.80
2023-04-17T05:36:10.693Z,11.86
2023-04-17T05:38:40.086Z,11.92
2023-04-17T05:41:09.397Z,11.97
2023-04-17T05:43:38.839Z,12.16
2023-04-17T05:46:06.813Z,12.33
2023-04-17T05:48:36.182Z,12.39
2023-04-17T05:51:04.244Z,12.36
2023-04-17T05:53:32.413Z,12.50
2023-04-17T05:56:00.197Z,12.54
2023-04-17T05:58:29.754Z,12.56
2023-04-17T06:00:59.398Z,12.71
2023-04-17T06:03:28.637Z,13.01
2023-04-17T06:06:16.019Z,13.04
2023-04-17T06:08:42.986Z,13.14
2023-04-17T06:11:10.221Z,13.32
2023-04-17T06:13:37.351Z,13.40
2023-04-17T06:16:05.714Z,13.48
2023-04-17T06:18:32.571Z,13.68
2023-04-17T06:20:59.972Z,13.84
2023-04-17T06:23:28.670Z,13.97
2023-04-17T06:25:56.850Z,14.06
2023-04-17T06:28:26.420Z,14.19
2023-04-17T06:30:55.171Z,14.40
2023-04-17T06:33:25.360Z,14.67
2023-04-17T06:35:53.658Z,14.87
2023-04-17T06:38:43.701Z,14.70
2023-04-17T06:41:11.802Z,14.70
2023-04-17T06:43:40.532Z,14.92
2023-04-17T06:46:14.791Z,15.01
2023-04-17T06:48:43.213Z,14.98
2023-04-17T06:51:10.079Z,15.05
2023-04-17T06:53:37.138Z,15.29
2023-04-17T06:56:04.279Z,15.46
2023-04-17T06:58:31.284Z,15.61
2023-04-17T07:00:59.365Z,15.65
2023-04-17T07:03:26.375Z,15.97
2023-04-17T07:05:53.225Z,16.00
2023-04-17T07:08:22.458Z,16.14
2023-04-17T07:10:49.576Z,16.33
2023-04-17T07:13:16.470Z,16.39
2023-04-17T07:15:43.467Z,16.42
2023-04-17T07:18:11.283Z,16.64
2023-04-17T07:20:38.962Z,16.71
2023-04-17T07:23:05.946Z,16.80
2023-04-17T07:25:32.977Z,16.69
2023-04-17T07:27:59.907Z,16.82
2023-04-17T07:30:26.955Z,16.76
2023-04-17T07:32:54.993Z,16.69
2023-04-17T07:35:22.841Z,16.44
2023-04-17T07:37:49.697Z,16.56
2023-04-17T07:40:18.287Z,16.68
2023-04-17T07:42:46.311Z,16.86
2023-04-17T07:45:13.134Z,17.31
2023-04-17T07:47:40.071Z,16.96
2023-04-17T07:50:07.540Z,17.12
2023-04-17T07:52:34.364Z,17.22
2023-04-17T07:55:01.283Z,17.41
2023-04-17T07:57:30.137Z,17.55
2023-04-17T07:59:57.218Z,17.90
2023-04-17T08:02:24.230Z,18.37
2023-04-17T08:04:52.360Z,18.43
2023-04-17T08:07:20.416Z,18.51
2023-04-17T08:09:47.804Z,18.73
2023-04-17T08:12:14.634Z,18.96
2023-04-17T08:14:42.096Z,19.03
2023-04-17T08:17:09.050Z,19.16
2023-04-17T08:19:35.999Z,18.86
2023-04-17T08:22:04.485Z,19.02
2023-04-17T08:24:31.964Z,18.99
2023-04-17T08:27:01.752Z,18.99
2023-04-17T08:29:28.650Z,18.57
2023-04-17T08:32:10.869Z,18.71
2023-04-17T08:34:43.744Z,18.72
2023-04-17T08:37:10.932Z,18.64
2023-04-17T08:39:37.959Z,18.24
2023-04-17T08:42:13.352Z,18.21
2023-04-17T08:44:44.583Z,18.02
2023-04-17T08:47:13.417Z,18.17
2023-04-17T08:49:43.939Z,18.24
2023-04-17T08:52:11.463Z,18.28
2023-04-17T08:54:39.619Z,17.89
2023-04-17T08:57:07.109Z,17.67
2023-04-17T08:59:38.815Z,17.48
2023-04-17T09:02:08.127Z,17.28
2023-04-17T09:04:43.850Z,17.34
2023-04-17T09:07:13.630Z,17.17
2023-04-17T09:09:57.055Z,17.27
2023-04-17T09:12:25.104Z,16.80
2023-04-17T09:14:52.265Z,17.17
2023-04-17T09:17:21.146Z,17.26
2023-04-17T09:20:12.202Z,17.08
2023-04-17T09:22:40.997Z,17.38
2023-04-17T09:25:18.720Z,17.44
2023-04-17T09:27:48.020Z,17.72
2023-04-17T09:30:15.140Z,17.97
2023-04-17T09:32:42.070Z,18.24
2023-04-17T09:35:09.213Z,18.18
2023-04-17T09:37:49.713Z,18.32
2023-04-17T09:40:17.811Z,18.69
2023-04-17T09:43:00.517Z,18.47
2023-04-17T09:45:33.437Z,18.80
2023-04-17T09:48:01.257Z,19.11
2023-04-17T09:50:28.824Z,19.13
2023-04-17T09:52:56.743Z,18.88
2023-04-17T09:55:26.659Z,19.06
2023-04-17T09:57:58.474Z,18.80
2023-04-17T10:00:29.625Z,18.70
2023-04-17T10:02:58.931Z,18.56
2023-04-17T10:05:29.192Z,18.66
2023-04-17T10:07:57.014Z,18.27
2023-04-17T10:10:26.351Z,18.06
2023-04-17T10:12:56.269Z,18.03
2023-04-17T10:15:24.869Z,18.25
2023-04-17T10:17:56.749Z,18.28
2023-04-17T10:20:30.186Z,18.55
2023-04-17T10:22:57.150Z,18.60
2023-04-17T10:25:26.689Z,18.85
2023-04-17T10:28:03.388Z,18.55
2023-04-17T10:30:49.098Z,18.41
2023-04-17T10:33:16.619Z,18.79
2023-04-17T10:35:43.600Z,18.96
2023-04-17T10:38:11.511Z,19.02
2023-04-17T10:40:39.909Z,19.18
2023-04-17T10:43:14.906Z,19.31
2023-04-17T10:46:00.519Z,19.28
2023-04-17T10:48:29.449Z,19.35
2023-04-17T10:50:57.128Z,19.37
2023-04-17T10:53:40.599Z,19.25
2023-04-17T10:56:08.593Z,19.28
2023-04-17T10:58:39.288Z,19.06
2023-04-17T11:01:11.449Z,19.13
2023-04-17T11:03:39.075Z,18.99
2023-04-17T11:06:07.370Z,18.83
2023-04-17T11:08:34.884Z,18.94
2023-04-17T11:11:01.953Z,18.78
2023-04-17T11:13:33.880Z,18.98
2023-04-17T11:16:03.200Z,19.02
2023-04-17T11:18:30.066Z,19.01
2023-04-17T11:20:58.208Z,18.86
2023-04-17T11:23:29.953Z,18.75
2023-04-17T11:25:56.934Z,18.74
2023-04-17T11:28:23.908Z,18.77
2023-04-17T11:30:50.852Z,18.59
2023-04-17T11:33:17.823Z,18.40
2023-04-17T11:35:44.768Z,18.42
2023-04-17T11:38:24.626Z,18.63
2023-04-17T11:40:59.337Z,18.71
2023-04-17T11:43:27.713Z,18.70
2023-04-17T11:45:56.623Z,18.70
2023-04-17T11:48:30.317Z,18.73
2023-04-17T11:50:59.221Z,18.58
2023-04-17T11:53:26.125Z,18.67
2023-04-17T11:56:14.338Z,18.83
2023-04-17T11:58:50.504Z,19.00
2023-04-17T12:01:18.986Z,18.95
2023-04-17T12:03:48.008Z,18.85
2023-04-17T12:06:15.252Z,18.88
2023-04-17T12:08:47.746Z,18.93
2023-04-17T12:11:25.547Z,18.85
2023-04-17T12:13:59.932Z,19.15
2023-04-17T12:16:29.144Z,19.22
2023-04-17T12:18:56.837Z,19.09
2023-04-17T12:21:24.231Z,19.20
2023-04-17T12:23:51.737Z,19.13
2023-04-17T12:26:20.438Z,19.04
2023-04-17T12:28:47.472Z,18.70
2023-04-17T12:31:14.362Z,18.57
2023-04-17T12:33:41.608Z,18.87
2023-04-17T12:36:09.112Z,18.83
2023-04-17T12:38:36.226Z,19.06
2023-04-17T12:41:03.129Z,19.05
2023-04-17T12:43:31.536Z,19.18
2023-04-17T12:45:58.784Z,19.27
2023-04-17T12:48:26.875Z,19.22
2023-04-17T12:50:54.559Z,19.28
2023-04-17T12:53:21.751Z,19.51
2023-04-17T12:55:49.272Z,19.58
2023-04-17T12:58:16.820Z,19.64
2023-04-17T13:00:44.743Z,19.69
2023-04-17T13:03:12.307Z,19.74
2023-04-17T13:05:39.804Z,19.63
2023-04-17T13:08:10.181Z,19.52
2023-04-17T13:10:37.052Z,19.59
2023-04-17T13:13:04.938Z,19.70
2023-04-17T13:15:33.151Z,19.90
2023-04-17T13:18:00.249Z,19.71
2023-04-17T13:20:27.464Z,19.62
2023-04-17T13:22:54.885Z,19.53
2023-04-17T13:25:23.020Z,19.71
2023-04-17T13:27:49.959Z,19.47
2023-04-17T13:30:16.987Z,19.52
2023-04-17T13:32:45.065Z,19.56
2023-04-17T13:35:13.536Z,19.55
2023-04-17T13:37:41.414Z,19.42
2023-04-17T13:40:12.163Z,19.29
2023-04-17T13:42:39.622Z,19.17
2023-04-17T13:45:07.280Z,19.12
2023-04-17T13:47:34.492Z,19.07
2023-04-17T13:50:02.056Z,19.16
2023-04-17T13:52:31.476Z,19.20
2023-04-17T13:54:58.305Z,19.21
2023-04-17T13:57:25.112Z,19.18
2023-04-17T13:59:51.914Z,19.12
2023-04-17T14:02:19.452Z,19.09
2023-04-17T14:04:46.609Z,19.02
2023-04-17T14:07:15.471Z,19.03
2023-04-17T14:09:42.566Z,19.16
2023-04-17T14:12:09.605Z,18.92
2023-04-17T14:14:36.561Z,18.66
2023-04-17T14:17:04.452Z,18.77
2023-04-17T14:19:34.357Z,18.55
2023-04-17T14:22:01.140Z,18.52
2023-04-17T14:24:27.999Z,18.38
2023-04-17T14:26:54.852Z,18.33
2023-04-17T14:29:21.758Z,18.26
2023-04-17T14:31:49.132Z,18.25
2023-04-17T14:34:16.027Z,18.17
2023-04-17T14:36:43.628Z,18.28
2023-04-17T14:39:11.709Z,18.23
2023-04-17T14:41:38.845Z,18.21
2023-04-17T14:44:05.802Z,18.10
2023-04-17T14:46:33.110Z,18.09
2023-04-17T14:49:00.642Z,18.05
2023-04-17T14:51:28.440Z,17.93
2023-04-17T14:53:57.629Z,17.83
2023-04-17T14:56:24.450Z,17.86
2023-04-17T14:58:51.326Z,17.94
2023-04-17T15:01:20.404Z,17.99
2023-04-17T15:03:48.664Z,17.94
2023-04-17T15:06:16.642Z,18.01
2023-04-17T15:08:43.666Z,17.83
2023-04-17T15:11:10.561Z,17.93
2023-04-17T15:13:37.691Z,17.96
2023-04-17T15:16:04.827Z,17.93
2023-04-17T15:18:32.267Z,18.07
2023-04-17T15:21:01.421Z,18.04
2023-04-17T15:23:32.039Z,17.84
2023-04-17T15:25:58.830Z,17.91
2023-04-17T15:28:25.911Z,17.81
2023-04-17T15:30:55.196Z,18.05
2023-04-17T15:33:22.077Z,17.85
2023-04-17T15:35:53.549Z,17.85
2023-04-17T15:38:20.287Z,17.86
2023-04-17T15:40:47.589Z,17.64
2023-04-17T15:43:15.688Z,17.70
2023-04-17T15:45:42.829Z,17.66
2023-04-17T15:48:10.385Z,17.74
2023-04-17T15:50:37.827Z,17.69
2023-04-17T15:53:04.644Z,17.57
2023-04-17T15:55:33.292Z,17.68
2023-04-17T15:58:00.318Z,17.66
2023-04-17T16:00:27.238Z,17.45
2023-04-17T16:02:54.243Z,17.28
2023-04-17T16:05:22.694Z,17.43
2023-04-17T16:07:49.611Z,17.28
2023-04-17T16:10:17.028Z,17.34
2023-04-17T16:12:46.836Z,17.20
2023-04-17T16:15:17.919Z,17.28
2023-04-17T16:17:45.983Z,17.06
2023-04-17T16:20:13.379Z,16.96
2023-04-17T16:22:40.770Z,16.87
2023-04-17T16:25:08.157Z,16.84
2023-04-17T16:27:35.062Z,16.79
2023-04-17T16:30:03.082Z,16.73
2023-04-17T16:32:32.227Z,16.64
2023-04-17T16:35:01.204Z,16.73
2023-04-17T16:37:29.856Z,16.60
2023-04-17T16:39:56.716Z,16.49
2023-04-17T16:42:24.252Z,16.54
2023-04-17T16:44:51.164Z,16.54
2023-04-17T16:47:18.313Z,16.30
2023-04-17T16:49:45.231Z,16.36
2023-04-17T16:52:13.006Z,16.12
2023-04-17T16:54:42.355Z,16.11
2023-04-17T16:57:11.885Z,16.03
2023-04-17T16:59:38.656Z,15.86
2023-04-17T17:02:05.571Z,15.77
2023-04-17T17:04:32.547Z,15.69
2023-04-17T17:06:59.656Z,15.62
2023-04-17T17:09:26.903Z,15.66
2023-04-17T17:11:53.866Z,15.69
2023-04-17T17:14:21.073Z,15.43
2023-04-17T17:16:48.344Z,15.41
2023-04-17T17:19:15.440Z,15.34
2023-04-17T17:21:42.604Z,15.29
2023-04-17T17:24:09.438Z,15.26
2023-04-17T17:26:37.071Z,15.25
2023-04-17T17:29:04.894Z,15.19
2023-04-17T17:31:34.393Z,15.09
2023-04-17T17:35:17.385Z,15.03
2023-04-17T17:37:28.581Z,14.80
2023-04-17T17:39:55.653Z,14.76
2023-04-17T17:42:24.307Z,14.71
2023-04-17T17:44:56.900Z,14.64
2023-04-17T17:47:26.456Z,14.57
2023-04-17T17:50:04.334Z,14.55
2023-04-17T17:52:47.419Z,14.51
2023-04-17T17:55:20.723Z,14.45
2023-04-17T17:57:49.660Z,14.38
2023-04-17T18:00:18.259Z,14.39
2023-04-17T18:02:49.180Z,14.34
2023-04-17T18:05:19.444Z,14.26
2023-04-17T18:07:48.018Z,14.11
2023-04-17T18:10:22.164Z,14.19
2023-04-17T18:12:50.760Z,14.10
2023-04-17T18:15:17.884Z,14.06
2023-04-17T18:17:46.349Z,14.04
2023-04-17T18:20:17.387Z,13.91
2023-04-17T18:22:47.941Z,13.90
2023-04-17T18:25:20.299Z,13.87
2023-04-17T18:27:51.603Z,13.95
2023-04-17T18:30:21.057Z,13.87
2023-04-17T18:32:53.191Z,13.83
2023-04-17T18:35:22.196Z,13.75
2023-04-17T18:37:57.168Z,13.67
2023-04-17T18:40:23.999Z,13.59
2023-04-17T18:42:53.982Z,13.67
2023-04-17T18:45:21.108Z,13.62
2023-04-17T18:47:49.377Z,13.59
2023-04-17T18:50:21.780Z,13.49
2023-04-17T18:52:52.818Z,13.51
2023-04-17T18:55:19.731Z,13.45
2023-04-17T18:57:47.819Z,13.47
2023-04-17T19:00:16.000Z,13.37
2023-04-17T19:02:42.997Z,13.43
2023-04-17T19:05:10.131Z,13.29
2023-04-17T19:07:37.073Z,13.33
2023-04-17T19:10:04.444Z,13.44
2023-04-17T19:12:31.679Z,13.35
2023-04-17T19:14:59.161Z,13.30
2023-04-17T19:17:25.927Z,13.41
2023-04-17T19:19:52.830Z,13.40
2023-04-17T19:22:20.065Z,13.34
2023-04-17T19:24:50.027Z,13.25
2023-04-17T19:27:17.714Z,13.27
2023-04-17T19:29:44.811Z,13.27
2023-04-17T19:32:12.466Z,13.22
2023-04-17T19:34:39.465Z,13.17
2023-04-17T19:37:06.465Z,13.12
2023-04-17T19:39:33.291Z,13.12
2023-04-17T19:42:01.215Z,13.09
2023-04-17T19:44:28.184Z,13.18
2023-04-17T19:46:55.372Z,13.10
2023-04-17T19:49:22.215Z,13.14
2023-04-17T19:51:49.340Z,13.11
2023-04-17T19:54:16.210Z,13.09
2023-04-17T19:56:44.456Z,13.08
2023-04-17T19:59:13.315Z,13.00
2023-04-17T20:01:43.406Z,12.96
2023-04-17T20:04:11.884Z,12.94
2023-04-17T20:06:41.208Z,12.82
2023-04-17T20:09:11.932Z,12.87
2023-04-17T20:11:44.158Z,12.79
2023-04-17T20:14:14.766Z,12.77
2023-04-17T20:16:42.127Z,12.74
2023-04-17T20:19:09.411Z,12.72
2023-04-17T20:21:36.272Z,12.79
2023-04-17T20:24:03.171Z,12.77
2023-04-17T20:26:29.931Z,12.68
2023-04-17T20:28:56.769Z,12.68
2023-04-17T20:31:25.075Z,12.66
2023-04-17T20:33:52.014Z,12.70
2023-04-17T20:36:18.801Z,12.74
2023-04-17T20:38:46.267Z,12.72
2023-04-17T20:41:13.423Z,12.70
2023-04-17T20:43:41.507Z,12.76
2023-04-17T20:46:08.501Z,12.77
2023-04-17T20:48:35.442Z,12.74
2023-04-17T20:51:05.451Z,12.74
2023-04-17T20:53:33.066Z,12.78
2023-04-17T20:55:59.960Z,12.75
2023-04-17T20:58:26.836Z,12.71
2023-04-17T21:01:00.692Z,12.79
2023-04-17T21:03:33.431Z,12.66
2023-04-17T21:06:01.237Z,12.69
2023-04-17T21:08:28.238Z,12.72
2023-04-17T21:10:55.155Z,12.85
2023-04-17T21:13:23.016Z,12.76
2023-04-17T21:15:50.013Z,12.81
2023-04-17T21:18:16.945Z,12.78
2023-04-17T21:20:44.124Z,12.73
2023-04-17T21:23:12.290Z,12.71
2023-04-17T21:25:39.155Z,12.66
2023-04-17T21:28:06.139Z,12.66
2023-04-17T21:30:33.282Z,12.66
2023-04-17T21:33:00.199Z,12.59
2023-04-17T21:35:27.314Z,12.57
2023-04-17T21:37:54.507Z,12.58
2023-04-17T21:40:21.357Z,12.51
2023-04-17T21:42:48.110Z,12.55
2023-04-17T21:45:16.279Z,12.45
2023-04-17T21:47:43.101Z,12.42
2023-04-17T21:50:10.514Z,12.39
2023-04-17T21:52:37.514Z,12.35
2023-04-17T21:55:07.908Z,12.32
2023-04-17T21:57:37.080Z,12.30
2023-04-17T22:00:05.506Z,12.33
2023-04-17T22:02:54.079Z,12.23
2023-04-17T22:05:23.894Z,12.19
2023-04-17T22:07:54.843Z,12.21
2023-04-17T22:10:22.959Z,12.16
2023-04-17T22:12:49.972Z,12.16
2023-04-17T22:15:17.358Z,12.17
2023-04-17T22:17:44.711Z,12.16
2023-04-17T22:20:12.298Z,12.15
2023-04-17T22:22:59.567Z,12.02
2023-04-17T22:26:41.219Z,11.97
2023-04-17T22:29:45.647Z,11.89
2023-04-17T22:32:55.452Z,12.02
2023-04-17T22:36:18.854Z,11.87
2023-04-17T22:39:22.493Z,11.80
2023-04-17T22:42:45.546Z,11.76
2023-04-17T22:45:12.440Z,11.82
2023-04-17T22:47:41.257Z,11.81
2023-04-17T22:50:10.519Z,11.80
2023-04-17T22:52:37.812Z,11.83
2023-04-17T22:55:04.962Z,11.83
2023-04-17T22:57:32.147Z,11.76
2023-04-17T22:59:58.962Z,11.75
2023-04-17T23:02:25.852Z,11.76
2023-04-17T23:04:52.962Z,11.77
2023-04-17T23:07:19.759Z,11.82
2023-04-17T23:09:48.458Z,11.79
2023-04-17T23:12:15.398Z,11.80
2023-04-17T23:14:43.564Z,11.79
2023-04-17T23:17:12.780Z,11.83
2023-04-17T23:19:39.652Z,11.88
2023-04-17T23:22:07.810Z,11.83
2023-04-17T23:24:35.348Z,11.83
2023-04-17T23:27:02.596Z,11.82
2023-04-17T23:29:29.925Z,11.82
2023-04-17T23:31:56.861Z,11.82
2023-04-17T23:34:23.692Z,11.80
2023-04-17T23:36:50.753Z,11.80
2023-04-17T23:39:17.632Z,11.76
2023-04-17T23:41:44.614Z,11.73
2023-04-17T23:44:11.778Z,11.76
2023-04-17T23:46:38.943Z,11.77
2023-04-17T23:49:05.974Z,11.77
2023-04-17T23:51:32.812Z,11.77
2023-04-17T23:54:01.121Z,11.78
2023-04-17T23:56:30.189Z,11.81
2023-04-17T23:58:57.537Z,11.86
